sensor_id;sensor_type;location;lat;lon;timestamp;pressure;altitude;pressure_sealevel;temperature;humidity
63535;BME280;55128;50.230;18.944;2023-04-25T00:03:05;97394.66;;;12.00;82.37
63535;BME280;55128;50.230;18.944;2023-04-25T00:08:06;97385.59;;;11.77;83.82
63535;BME280;55128;50.230;18.944;2023-04-25T00:13:07;97396.16;;;11.91;83.26
63535;BME280;55128;50.230;18.944;2023-04-25T00:18:08;97393.91;;;11.85;83.52
63535;BME280;55128;50.230;18.944;2023-04-25T00:23:09;97393.72;;;11.75;84.06
63535;BME280;55128;50.230;18.944;2023-04-25T00:28:11;97395.72;;;11.84;83.85
63535;BME280;55128;50.230;18.944;2023-04-25T00:33:12;97398.50;;;11.83;84.74
63535;BME280;55128;50.230;18.944;2023-04-25T00:38:12;97395.28;;;11.78;84.01
63535;BME280;55128;50.230;18.944;2023-04-25T00:43:12;97394.88;;;11.71;85.43
63535;BME280;55128;50.230;18.944;2023-04-25T00:48:14;97396.56;;;11.85;84.05
63535;BME280;55128;50.230;18.944;2023-04-25T00:53:14;97406.47;;;11.83;84.00
63535;BME280;55128;50.230;18.944;2023-04-25T00:58:15;97396.25;;;11.77;84.55
63535;BME280;55128;50.230;18.944;2023-04-25T01:03:16;97399.53;;;11.80;84.18
63535;BME280;55128;50.230;18.944;2023-04-25T01:08:17;97407.56;;;11.55;85.12
63535;BME280;55128;50.230;18.944;2023-04-25T01:13:17;97407.00;;;11.50;84.86
63535;BME280;55128;50.230;18.944;2023-04-25T01:18:19;97405.53;;;11.45;84.99
63535;BME280;55128;50.230;18.944;2023-04-25T01:23:21;97414.25;;;11.35;83.83
63535;BME280;55128;50.230;18.944;2023-04-25T01:28:22;97413.81;;;11.15;83.33
63535;BME280;55128;50.230;18.944;2023-04-25T01:33:22;97418.44;;;10.99;83.58
63535;BME280;55128;50.230;18.944;2023-04-25T01:38:23;97433.72;;;10.95;83.37
63535;BME280;55128;50.230;18.944;2023-04-25T01:43:23;97417.34;;;10.88;83.25
63535;BME280;55128;50.230;18.944;2023-04-25T01:48:24;97425.41;;;10.74;83.23
63535;BME280;55128;50.230;18.944;2023-04-25T01:53:24;97425.66;;;10.57;82.40
63535;BME280;55128;50.230;18.944;2023-04-25T01:58:25;97420.41;;;10.42;81.40
63535;BME280;55128;50.230;18.944;2023-04-25T02:03:25;97432.75;;;10.15;81.31
63535;BME280;55128;50.230;18.944;2023-04-25T02:08:25;97430.09;;;10.00;81.28
63535;BME280;55128;50.230;18.944;2023-04-25T02:13:26;97433.97;;;9.95;80.77
63535;BME280;55128;50.230;18.944;2023-04-25T02:18:27;97442.22;;;9.76;82.50
63535;BME280;55128;50.230;18.944;2023-04-25T02:23:28;97438.16;;;9.84;82.79
63535;BME280;55128;50.230;18.944;2023-04-25T02:28:28;97442.59;;;10.12;82.12
63535;BME280;55128;50.230;18.944;2023-04-25T02:33:28;97438.53;;;10.07;82.85
63535;BME280;55128;50.230;18.944;2023-04-25T02:38:29;97443.81;;;10.21;82.92
63535;BME280;55128;50.230;18.944;2023-04-25T02:43:30;97439.75;;;10.16;82.82
63535;BME280;55128;50.230;18.944;2023-04-25T02:48:30;97443.41;;;10.27;81.92
63535;BME280;55128;50.230;18.944;2023-04-25T02:53:30;97440.69;;;10.00;82.37
63535;BME280;55128;50.230;18.944;2023-04-25T02:58:31;97437.34;;;9.84;82.92
63535;BME280;55128;50.230;18.944;2023-04-25T03:03:31;97439.41;;;9.93;82.36
63535;BME280;55128;50.230;18.944;2023-04-25T03:08:31;97440.91;;;9.68;82.40
63535;BME280;55128;50.230;18.944;2023-04-25T03:13:32;97435.78;;;9.80;81.51
63535;BME280;55128;50.230;18.944;2023-04-25T03:18:33;97439.50;;;9.77;81.34
63535;BME280;55128;50.230;18.944;2023-04-25T03:23:33;97439.09;;;9.83;79.93
63535;BME280;55128;50.230;18.944;2023-04-25T03:28:33;97445.75;;;9.76;81.00
63535;BME280;55128;50.230;18.944;2023-04-25T03:33:34;97448.19;;;9.79;79.48
63535;BME280;55128;50.230;18.944;2023-04-25T03:38:35;97453.78;;;9.60;80.76
63535;BME280;55128;50.230;18.944;2023-04-25T03:43:35;97458.69;;;9.66;80.53
63535;BME280;55128;50.230;18.944;2023-04-25T03:48:36;97457.94;;;9.64;79.97
63535;BME280;55128;50.230;18.944;2023-04-25T03:53:37;97458.53;;;9.69;80.34
63535;BME280;55128;50.230;18.944;2023-04-25T03:58:37;97469.84;;;9.57;79.73
63535;BME280;55128;50.230;18.944;2023-04-25T04:03:37;97475.00;;;9.75;79.11
63535;BME280;55128;50.230;18.944;2023-04-25T04:08:38;97480.78;;;9.67;78.36
63535;BME280;55128;50.230;18.944;2023-04-25T04:13:38;97479.81;;;9.68;78.60
63535;BME280;55128;50.230;18.944;2023-04-25T04:18:39;97484.28;;;9.82;78.29
63535;BME280;55128;50.230;18.944;2023-04-25T04:23:39;97492.50;;;9.77;77.75
63535;BME280;55128;50.230;18.944;2023-04-25T04:28:39;97482.19;;;9.72;78.10
63535;BME280;55128;50.230;18.944;2023-04-25T04:33:40;97491.84;;;9.88;77.72
63535;BME280;55128;50.230;18.944;2023-04-25T04:38:40;97486.34;;;9.77;77.29
63535;BME280;55128;50.230;18.944;2023-04-25T04:43:41;97488.06;;;9.92;76.91
63535;BME280;55128;50.230;18.944;2023-04-25T04:48:42;97480.59;;;9.99;76.68
63535;BME280;55128;50.230;18.944;2023-04-25T04:53:42;97490.69;;;10.21;76.02
63535;BME280;55128;50.230;18.944;2023-04-25T04:58:43;97486.03;;;10.24;75.93
63535;BME280;55128;50.230;18.944;2023-04-25T05:03:44;97487.94;;;10.22;75.84
63535;BME280;55128;50.230;18.944;2023-04-25T05:08:45;97491.63;;;10.34;75.43
63535;BME280;55128;50.230;18.944;2023-04-25T05:13:45;97485.38;;;10.49;75.13
63535;BME280;55128;50.230;18.944;2023-04-25T05:18:46;97494.66;;;10.57;73.90
63535;BME280;55128;50.230;18.944;2023-04-25T05:23:47;97494.34;;;10.61;71.90
63535;BME280;55128;50.230;18.944;2023-04-25T05:28:47;97492.97;;;10.41;71.61
63535;BME280;55128;50.230;18.944;2023-04-25T05:33:48;97495.28;;;10.60;70.50
63535;BME280;55128;50.230;18.944;2023-04-25T05:38:48;97498.72;;;10.89;69.58
63535;BME280;55128;50.230;18.944;2023-04-25T05:43:49;97499.78;;;10.87;68.28
63535;BME280;55128;50.230;18.944;2023-04-25T05:48:49;97499.31;;;11.20;67.13
63535;BME280;55128;50.230;18.944;2023-04-25T05:53:50;97498.25;;;10.83;66.80
63535;BME280;55128;50.230;18.944;2023-04-25T05:58:50;97510.13;;;10.77;66.59
63535;BME280;55128;50.230;18.944;2023-04-25T06:03:51;97512.25;;;10.58;67.38
63535;BME280;55128;50.230;18.944;2023-04-25T06:08:52;97506.63;;;11.04;66.89
63535;BME280;55128;50.230;18.944;2023-04-25T06:13:53;97514.81;;;10.86;66.27
63535;BME280;55128;50.230;18.944;2023-04-25T06:18:54;97515.13;;;11.09;65.39
63535;BME280;55128;50.230;18.944;2023-04-25T06:23:54;97512.41;;;11.23;65.25
63535;BME280;55128;50.230;18.944;2023-04-25T06:28:54;97524.28;;;11.45;63.77
63535;BME280;55128;50.230;18.944;2023-04-25T06:33:55;97522.47;;;11.18;63.57
63535;BME280;55128;50.230;18.944;2023-04-25T06:38:56;97522.66;;;11.42;63.06
63535;BME280;55128;50.230;18.944;2023-04-25T06:44:00;97530.47;;;11.58;62.83
63535;BME280;55128;50.230;18.944;2023-04-25T06:49:01;97518.72;;;11.48;63.00
63535;BME280;55128;50.230;18.944;2023-04-25T06:54:05;97519.22;;;11.67;62.87
63535;BME280;55128;50.230;18.944;2023-04-25T06:59:06;97522.38;;;11.73;61.67
63535;BME280;55128;50.230;18.944;2023-04-25T07:04:06;97514.66;;;12.08;62.06
63535;BME280;55128;50.230;18.944;2023-04-25T07:09:07;97514.84;;;11.79;61.13
63535;BME280;55128;50.230;18.944;2023-04-25T07:14:07;97522.31;;;12.00;60.54
63535;BME280;55128;50.230;18.944;2023-04-25T07:19:07;97516.47;;;12.08;59.59
63535;BME280;55128;50.230;18.944;2023-04-25T07:24:09;97513.47;;;12.12;59.81
63535;BME280;55128;50.230;18.944;2023-04-25T07:29:10;97517.31;;;12.08;59.55
63535;BME280;55128;50.230;18.944;2023-04-25T07:34:10;97521.19;;;12.54;58.82
63535;BME280;55128;50.230;18.944;2023-04-25T07:39:10;97514.84;;;12.31;57.94
63535;BME280;55128;50.230;18.944;2023-04-25T07:44:11;97516.47;;;12.20;57.05
63535;BME280;55128;50.230;18.944;2023-04-25T07:49:12;97519.34;;;12.04;56.29
63535;BME280;55128;50.230;18.944;2023-04-25T07:54:14;97523.28;;;11.99;56.29
63535;BME280;55128;50.230;18.944;2023-04-25T07:59:15;97523.50;;;12.71;54.26
63535;BME280;55128;50.230;18.944;2023-04-25T08:04:16;97526.91;;;14.04;52.44
63535;BME280;55128;50.230;18.944;2023-04-25T08:09:17;97527.63;;;15.61;50.51
63535;BME280;55128;50.230;18.944;2023-04-25T08:14:21;97519.19;;;16.59;46.49
63535;BME280;55128;50.230;18.944;2023-04-25T08:19:26;97533.47;;;17.29;44.38
63535;BME280;55128;50.230;18.944;2023-04-25T08:24:50;97508.91;;;17.34;42.74
63535;BME280;55128;50.230;18.944;2023-04-25T08:47:15;97522.91;;;18.34;39.35
63535;BME280;55128;50.230;18.944;2023-04-25T09:09:32;97519.81;;;16.73;39.94
63535;BME280;55128;50.230;18.944;2023-04-25T09:19:43;97523.50;;;15.89;41.50
63535;BME280;55128;50.230;18.944;2023-04-25T09:24:45;97531.09;;;16.76;39.48
63535;BME280;55128;50.230;18.944;2023-04-25T09:29:56;97533.06;;;17.63;37.31
63535;BME280;55128;50.230;18.944;2023-04-25T09:46:01;97527.34;;;15.96;42.30
63535;BME280;55128;50.230;18.944;2023-04-25T09:51:11;97530.94;;;15.85;41.00
63535;BME280;55128;50.230;18.944;2023-04-25T10:07:35;97520.34;;;16.05;38.70
63535;BME280;55128;50.230;18.944;2023-04-25T10:12:38;97513.56;;;16.31;39.21
63535;BME280;55128;50.230;18.944;2023-04-25T10:17:40;97528.34;;;16.57;38.67
63535;BME280;55128;50.230;18.944;2023-04-25T10:22:45;97519.50;;;16.35;38.97
63535;BME280;55128;50.230;18.944;2023-04-25T10:27:51;97524.72;;;16.37;38.69
63535;BME280;55128;50.230;18.944;2023-04-25T10:32:54;97515.72;;;16.07;39.36
63535;BME280;55128;50.230;18.944;2023-04-25T10:38:13;97517.41;;;15.87;40.59
63535;BME280;55128;50.230;18.944;2023-04-25T10:48:34;97511.72;;;15.80;39.52
63535;BME280;55128;50.230;18.944;2023-04-25T10:53:34;97508.63;;;15.75;39.74
63535;BME280;55128;50.230;18.944;2023-04-25T10:58:35;97508.00;;;15.71;39.60
63535;BME280;55128;50.230;18.944;2023-04-25T11:03:45;97507.09;;;15.29;39.78
63535;BME280;55128;50.230;18.944;2023-04-25T11:08:51;97508.97;;;15.17;39.11
63535;BME280;55128;50.230;18.944;2023-04-25T11:13:51;97512.59;;;15.48;39.67
63535;BME280;55128;50.230;18.944;2023-04-25T11:18:52;97507.31;;;15.90;38.40
63535;BME280;55128;50.230;18.944;2023-04-25T11:23:54;97518.44;;;15.74;38.06
63535;BME280;55128;50.230;18.944;2023-04-25T11:28:58;97520.63;;;15.48;38.07
63535;BME280;55128;50.230;18.944;2023-04-25T11:34:02;97513.28;;;15.29;37.65
63535;BME280;55128;50.230;18.944;2023-04-25T11:39:03;97519.41;;;15.52;38.16
63535;BME280;55128;50.230;18.944;2023-04-25T11:44:04;97520.72;;;15.26;38.79
63535;BME280;55128;50.230;18.944;2023-04-25T11:49:05;97513.16;;;15.31;39.06
63535;BME280;55128;50.230;18.944;2023-04-25T11:54:06;97521.00;;;15.23;39.79
63535;BME280;55128;50.230;18.944;2023-04-25T11:59:06;97522.63;;;15.03;40.95
63535;BME280;55128;50.230;18.944;2023-04-25T12:04:18;97522.50;;;15.04;40.97
63535;BME280;55128;50.230;18.944;2023-04-25T12:09:32;97522.78;;;14.90;41.16
63535;BME280;55128;50.230;18.944;2023-04-25T12:14:35;97514.78;;;14.56;41.10
63535;BME280;55128;50.230;18.944;2023-04-25T12:19:37;97519.19;;;14.23;41.18
63535;BME280;55128;50.230;18.944;2023-04-25T12:24:40;97516.25;;;14.60;40.49
63535;BME280;55128;50.230;18.944;2023-04-25T12:29:50;97514.06;;;14.54;41.16
63535;BME280;55128;50.230;18.944;2023-04-25T12:34:53;97527.91;;;14.82;40.94
63535;BME280;55128;50.230;18.944;2023-04-25T12:39:56;97524.03;;;14.74;40.71
63535;BME280;55128;50.230;18.944;2023-04-25T12:44:56;97526.22;;;14.58;40.43
63535;BME280;55128;50.230;18.944;2023-04-25T12:50:16;97523.81;;;14.32;41.67
63535;BME280;55128;50.230;18.944;2023-04-25T12:55:17;97512.75;;;14.71;40.80
63535;BME280;55128;50.230;18.944;2023-04-25T13:00:18;97505.78;;;14.91;39.69
63535;BME280;55128;50.230;18.944;2023-04-25T13:05:19;97510.88;;;14.83;41.39
63535;BME280;55128;50.230;18.944;2023-04-25T13:10:20;97511.41;;;14.65;39.93
63535;BME280;55128;50.230;18.944;2023-04-25T13:15:21;97502.56;;;14.65;40.02
63535;BME280;55128;50.230;18.944;2023-04-25T13:20:22;97502.44;;;14.32;40.36
63535;BME280;55128;50.230;18.944;2023-04-25T13:25:22;97510.44;;;14.55;40.22
63535;BME280;55128;50.230;18.944;2023-04-25T13:30:22;97509.00;;;14.73;40.16
63535;BME280;55128;50.230;18.944;2023-04-25T13:35:23;97493.84;;;14.95;39.94
63535;BME280;55128;50.230;18.944;2023-04-25T13:40:23;97505.06;;;14.89;39.84
63535;BME280;55128;50.230;18.944;2023-04-25T13:45:24;97506.25;;;14.96;40.70
63535;BME280;55128;50.230;18.944;2023-04-25T13:50:24;97498.13;;;15.30;40.36
63535;BME280;55128;50.230;18.944;2023-04-25T13:55:25;97510.94;;;15.15;40.45
63535;BME280;55128;50.230;18.944;2023-04-25T14:00:26;97506.78;;;15.22;39.83
63535;BME280;55128;50.230;18.944;2023-04-25T14:05:26;97502.81;;;15.05;40.19
63535;BME280;55128;50.230;18.944;2023-04-25T14:10:26;97508.97;;;14.85;40.63
63535;BME280;55128;50.230;18.944;2023-04-25T14:15:27;97514.84;;;15.11;40.18
63535;BME280;55128;50.230;18.944;2023-04-25T14:20:27;97499.28;;;15.37;39.41
63535;BME280;55128;50.230;18.944;2023-04-25T14:25:29;97510.91;;;15.26;40.13
63535;BME280;55128;50.230;18.944;2023-04-25T14:30:30;97510.94;;;15.15;39.68
63535;BME280;55128;50.230;18.944;2023-04-25T14:35:32;97514.53;;;14.82;41.55
63535;BME280;55128;50.230;18.944;2023-04-25T14:40:49;97514.38;;;15.06;40.63
63535;BME280;55128;50.230;18.944;2023-04-25T14:45:54;97507.94;;;14.97;40.97
63535;BME280;55128;50.230;18.944;2023-04-25T14:51:08;97507.84;;;14.87;39.83
63535;BME280;55128;50.230;18.944;2023-04-25T14:56:28;97508.50;;;14.46;41.12
63535;BME280;55128;50.230;18.944;2023-04-25T15:01:55;97509.53;;;14.88;40.38
63535;BME280;55128;50.230;18.944;2023-04-25T15:07:28;97515.78;;;14.66;41.17
63535;BME280;55128;50.230;18.944;2023-04-25T15:12:29;97515.16;;;14.74;40.54
63535;BME280;55128;50.230;18.944;2023-04-25T15:17:30;97515.91;;;14.19;41.51
63535;BME280;55128;50.230;18.944;2023-04-25T15:22:31;97515.06;;;14.53;41.27
63535;BME280;55128;50.230;18.944;2023-04-25T15:27:31;97520.00;;;14.46;42.00
63535;BME280;55128;50.230;18.944;2023-04-25T15:32:32;97521.84;;;14.34;42.99
63535;BME280;55128;50.230;18.944;2023-04-25T15:37:33;97523.31;;;14.38;41.57
63535;BME280;55128;50.230;18.944;2023-04-25T15:42:50;97523.97;;;13.73;43.74
63535;BME280;55128;50.230;18.944;2023-04-25T15:47:51;97533.69;;;13.85;43.05
63535;BME280;55128;50.230;18.944;2023-04-25T15:52:52;97531.06;;;14.08;42.33
63535;BME280;55128;50.230;18.944;2023-04-25T15:57:54;97522.78;;;13.99;43.37
63535;BME280;55128;50.230;18.944;2023-04-25T16:02:54;97524.97;;;14.28;41.91
63535;BME280;55128;50.230;18.944;2023-04-25T16:07:55;97520.13;;;14.33;42.38
63535;BME280;55128;50.230;18.944;2023-04-25T16:12:56;97523.19;;;14.29;42.41
63535;BME280;55128;50.230;18.944;2023-04-25T16:17:56;97533.13;;;14.15;42.49
63535;BME280;55128;50.230;18.944;2023-04-25T16:22:56;97536.78;;;13.68;42.45
63535;BME280;55128;50.230;18.944;2023-04-25T16:27:57;97541.03;;;13.59;41.98
63535;BME280;55128;50.230;18.944;2023-04-25T16:32:57;97542.50;;;13.39;42.61
63535;BME280;55128;50.230;18.944;2023-04-25T16:37:58;97546.41;;;13.22;43.05
63535;BME280;55128;50.230;18.944;2023-04-25T16:42:58;97546.88;;;13.40;43.59
63535;BME280;55128;50.230;18.944;2023-04-25T16:47:58;97550.56;;;13.50;42.34
63535;BME280;55128;50.230;18.944;2023-04-25T16:52:59;97535.41;;;13.27;42.63
63535;BME280;55128;50.230;18.944;2023-04-25T16:57:59;97552.69;;;12.97;42.89
63535;BME280;55128;50.230;18.944;2023-04-25T17:03:00;97555.44;;;12.71;42.91
63535;BME280;55128;50.230;18.944;2023-04-25T17:08:01;97564.44;;;12.44;43.02
63535;BME280;55128;50.230;18.944;2023-04-25T17:13:01;97560.94;;;12.18;43.88
63535;BME280;55128;50.230;18.944;2023-04-25T17:18:01;97561.03;;;11.91;43.80
63535;BME280;55128;50.230;18.944;2023-04-25T17:23:02;97575.31;;;11.90;44.31
63535;BME280;55128;50.230;18.944;2023-04-25T17:28:03;97571.47;;;11.94;45.17
63535;BME280;55128;50.230;18.944;2023-04-25T17:33:04;97581.09;;;11.70;46.21
63535;BME280;55128;50.230;18.944;2023-04-25T17:38:05;97580.91;;;11.85;45.31
63535;BME280;55128;50.230;18.944;2023-04-25T17:43:06;97580.75;;;11.61;46.29
63535;BME280;55128;50.230;18.944;2023-04-25T17:48:06;97600.97;;;11.37;46.72
63535;BME280;55128;50.230;18.944;2023-04-25T17:53:07;97611.47;;;11.25;47.88
63535;BME280;55128;50.230;18.944;2023-04-25T17:58:11;97614.94;;;10.99;47.94
63535;BME280;55128;50.230;18.944;2023-04-25T18:03:11;97621.69;;;10.90;48.29
63535;BME280;55128;50.230;18.944;2023-04-25T18:08:12;97632.72;;;10.69;48.42
63535;BME280;55128;50.230;18.944;2023-04-25T18:13:12;97633.50;;;10.57;48.81
63535;BME280;55128;50.230;18.944;2023-04-25T18:18:13;97642.47;;;10.55;49.44
63535;BME280;55128;50.230;18.944;2023-04-25T18:23:18;97647.03;;;10.53;49.50
63535;BME280;55128;50.230;18.944;2023-04-25T18:28:19;97668.63;;;10.32;50.70
63535;BME280;55128;50.230;18.944;2023-04-25T18:33:21;97674.81;;;10.17;50.64
63535;BME280;55128;50.230;18.944;2023-04-25T18:38:21;97684.00;;;10.11;51.05
63535;BME280;55128;50.230;18.944;2023-04-25T18:43:22;97694.50;;;10.12;51.54
63535;BME280;55128;50.230;18.944;2023-04-25T18:48:22;97704.22;;;9.98;52.15
63535;BME280;55128;50.230;18.944;2023-04-25T18:53:22;97704.34;;;9.80;52.34
63535;BME280;55128;50.230;18.944;2023-04-25T18:58:23;97717.09;;;9.73;52.58
63535;BME280;55128;50.230;18.944;2023-04-25T19:03:24;97716.44;;;9.54;53.24
63535;BME280;55128;50.230;18.944;2023-04-25T19:08:25;97722.09;;;9.48;54.24
63535;BME280;55128;50.230;18.944;2023-04-25T19:13:25;97727.47;;;9.30;54.29
63535;BME280;55128;50.230;18.944;2023-04-25T19:18:27;97730.81;;;9.18;54.73
63535;BME280;55128;50.230;18.944;2023-04-25T19:23:28;97733.19;;;9.07;55.69
63535;BME280;55128;50.230;18.944;2023-04-25T19:28:30;97726.59;;;8.98;56.52
63535;BME280;55128;50.230;18.944;2023-04-25T19:33:31;97730.84;;;9.01;57.16
63535;BME280;55128;50.230;18.944;2023-04-25T19:38:32;97741.13;;;9.07;57.16
63535;BME280;55128;50.230;18.944;2023-04-25T19:43:33;97744.34;;;9.12;57.14
63535;BME280;55128;50.230;18.944;2023-04-25T19:48:34;97743.59;;;9.10;57.92
63535;BME280;55128;50.230;18.944;2023-04-25T19:53:34;97753.25;;;9.27;57.63
63535;BME280;55128;50.230;18.944;2023-04-25T19:58:35;97750.09;;;9.20;58.03
63535;BME280;55128;50.230;18.944;2023-04-25T20:03:36;97756.28;;;9.37;58.00
63535;BME280;55128;50.230;18.944;2023-04-25T20:08:37;97759.78;;;9.37;58.51
63535;BME280;55128;50.230;18.944;2023-04-25T20:13:39;97766.19;;;9.49;58.63
63535;BME280;55128;50.230;18.944;2023-04-25T20:18:57;97765.25;;;9.50;58.15
63535;BME280;55128;50.230;18.944;2023-04-25T20:24:04;97771.22;;;9.38;58.99
63535;BME280;55128;50.230;18.944;2023-04-25T20:29:04;97784.19;;;9.26;59.58
63535;BME280;55128;50.230;18.944;2023-04-25T20:34:07;97787.31;;;9.17;59.92
63535;BME280;55128;50.230;18.944;2023-04-25T20:39:21;97792.00;;;9.12;60.53
63535;BME280;55128;50.230;18.944;2023-04-25T20:44:26;97799.88;;;9.13;60.39
63535;BME280;55128;50.230;18.944;2023-04-25T20:49:31;97812.72;;;8.88;61.65
63535;BME280;55128;50.230;18.944;2023-04-25T20:54:31;97803.88;;;9.05;61.66
63535;BME280;55128;50.230;18.944;2023-04-25T20:59:32;97813.16;;;8.96;62.13
63535;BME280;55128;50.230;18.944;2023-04-25T21:04:32;97813.53;;;9.06;61.97
63535;BME280;55128;50.230;18.944;2023-04-25T21:09:33;97817.16;;;9.21;62.08
63535;BME280;55128;50.230;18.944;2023-04-25T21:14:33;97822.16;;;9.09;62.74
63535;BME280;55128;50.230;18.944;2023-04-25T21:19:34;97823.56;;;9.17;62.66
63535;BME280;55128;50.230;18.944;2023-04-25T21:24:34;97825.91;;;9.39;62.05
63535;BME280;55128;50.230;18.944;2023-04-25T21:29:35;97823.25;;;9.39;61.86
63535;BME280;55128;50.230;18.944;2023-04-25T21:34:36;97819.66;;;9.40;61.66
63535;BME280;55128;50.230;18.944;2023-04-25T21:39:44;97828.78;;;9.18;61.70
63535;BME280;55128;50.230;18.944;2023-04-25T21:44:46;97839.09;;;9.23;62.00
63535;BME280;55128;50.230;18.944;2023-04-25T21:49:49;97852.81;;;9.31;61.51
63535;BME280;55128;50.230;18.944;2023-04-25T21:54:49;97852.03;;;8.95;64.57
63535;BME280;55128;50.230;18.944;2023-04-25T21:59:50;97850.31;;;8.77;66.23
63535;BME280;55128;50.230;18.944;2023-04-25T22:04:50;97854.75;;;8.42;68.45
63535;BME280;55128;50.230;18.944;2023-04-25T22:09:51;97858.88;;;8.47;68.98
63535;BME280;55128;50.230;18.944;2023-04-25T22:14:51;97860.81;;;8.61;68.80
63535;BME280;55128;50.230;18.944;2023-04-25T22:19:52;97867.25;;;8.55;68.41
63535;BME280;55128;50.230;18.944;2023-04-25T22:24:52;97869.91;;;8.55;67.81
63535;BME280;55128;50.230;18.944;2023-04-25T22:29:53;97860.72;;;8.45;67.34
63535;BME280;55128;50.230;18.944;2023-04-25T22:34:54;97866.66;;;8.50;66.14
63535;BME280;55128;50.230;18.944;2023-04-25T22:39:54;97870.00;;;8.35;66.80
63535;BME280;55128;50.230;18.944;2023-04-25T22:44:55;97880.59;;;8.35;65.55
63535;BME280;55128;50.230;18.944;2023-04-25T22:49:56;97884.72;;;8.60;64.55
63535;BME280;55128;50.230;18.944;2023-04-25T22:54:57;97883.44;;;8.49;65.88
63535;BME280;55128;50.230;18.944;2023-04-25T22:59:57;97886.47;;;8.59;64.90
63535;BME280;55128;50.230;18.944;2023-04-25T23:04:58;97892.81;;;8.37;66.00
63535;BME280;55128;50.230;18.944;2023-04-25T23:09:59;97900.75;;;8.37;65.73
63535;BME280;55128;50.230;18.944;2023-04-25T23:15:00;97901.91;;;8.32;65.86
63535;BME280;55128;50.230;18.944;2023-04-25T23:20:02;97906.41;;;8.30;65.42
63535;BME280;55128;50.230;18.944;2023-04-25T23:25:06;97908.63;;;8.39;65.36
63535;BME280;55128;50.230;18.944;2023-04-25T23:30:08;97918.56;;;8.34;65.23
63535;BME280;55128;50.230;18.944;2023-04-25T23:35:09;97921.50;;;8.28;64.97
63535;BME280;55128;50.230;18.944;2023-04-25T23:40:10;97920.06;;;8.21;65.20
63535;BME280;55128;50.230;18.944;2023-04-25T23:45:14;97913.38;;;8.13;64.73
63535;BME280;55128;50.230;18.944;2023-04-25T23:50:15;97916.84;;;8.14;64.69
63535;BME280;55128;50.230;18.944;2023-04-25T23:55:16;97921.72;;;8.04;65.03
